Alexandra N — A8NR5 — position and weather

sailwx.info

Track history (hours):
 
Tides and Currents Weather Stations Pressure Air Temp Water Temp Dewpoint Dewpoint Depression Visibility Wind Speed Wind Dir Waves Ship Positions

Alexandra N

Last reported at 2015-Jun-13 08:20 UTC. Time now 2015-Jul-02 03:34 UTC.
Position N 25°06' E 054°53'.
Warning: this ship's position is 18 days out of date.

Length 184 m; draft 7.5 m.

Type: Cargo ship. MMSI: 636091436.

Date/timePositionNaut miles runAvg speedWind from/ knotsBaromVisibWave heightAir tempDewpointWater temp
2015-Jun-13 08:20N 25°06' E 054°53'10710.6
2015-Jun-12 22:15N 25°41' E 053°01'912.7
2015-Jun-12 21:32N 25°44' E 052°51'1212.3
2015-Jun-12 20:33N 25°46' E 052°38'1211.9
2015-Jun-12 19:33N 25°44' E 052°25'1212.3
2015-Jun-12 18:33N 25°36' E 052°15'1212.1
2015-Jun-12 17:33N 25°28' E 052°04'21 0.8
2015-Jun-11 15:23N 25°19' E 051°44'0 0.1
2015-Jun-11 14:29N 25°19' E 051°44'21011.0
2015-Jun-10 19:19N 26°21' E 055°27'  
Track history (hours):
 
Tides and Currents Weather Stations Pressure Air Temp Water Temp Dewpoint Dewpoint Depression Visibility Wind Speed Wind Dir Waves Ship Positions

Alexandra N

Last reported at 2015-Jun-13 08:20 UTC. Time now 2015-Jul-02 03:34 UTC.
Position N 25°06' E 054°53'.
Warning: this ship's position is 18 days out of date.

Length 184 m; draft 7.5 m.

Type: Cargo ship. MMSI: 636091436.

Date/timePositionNaut miles runAvg speedWind from/ knotsBaromVisibWave heightAir tempDewpointWater temp
2015-Jun-13 08:20N 25°06' E 054°53'10710.6
2015-Jun-12 22:15N 25°41' E 053°01'912.7
2015-Jun-12 21:32N 25°44' E 052°51'1212.3
2015-Jun-12 20:33N 25°46' E 052°38'1211.9
2015-Jun-12 19:33N 25°44' E 052°25'1212.3
2015-Jun-12 18:33N 25°36' E 052°15'1212.1
2015-Jun-12 17:33N 25°28' E 052°04'21 0.8
2015-Jun-11 15:23N 25°19' E 051°44'0 0.1
2015-Jun-11 14:29N 25°19' E 051°44'21011.0
2015-Jun-10 19:19N 26°21' E 055°27'  

Dump ship's entire track history